Time;durP1;ratioP1;P1;durP2;ratioP2;P2;SDS_P1;SDS_P2;PMS_P1;PMS_P2;Temp;Humidity;BMP_temperature;BMP_pressure;BME280_temperature;BME280_humidity;BME280_pressure;Samples;Min_cycle;Max_cycle;Signal;HPM_P1;HPM_P2
2022/11/03 00:01:56;;;;;;;9.70;2.00;;;;;;;;;;106903;1306;22133;-77
2022/11/03 00:04:23;;;;;;;12.10;3.40;;;;;;;;;;106915;1306;22053;-77
2022/11/03 00:06:50;;;;;;;14.10;5.80;;;;;;;;;;106921;1305;22086;-77
2022/11/03 00:09:17;;;;;;;17.00;6.00;;;;;;;;;;106754;1307;22767;-77
2022/11/03 00:11:44;;;;;;;16.20;6.10;;;;;;;;;;106878;1307;22063;-77
2022/11/03 00:14:10;;;;;;;21.40;6.50;;;;;;;;;;106726;1307;22054;-77
2022/11/03 00:16:36;;;;;;;16.10;6.20;;;;;;;;;;106884;1307;22147;-77
2022/11/03 00:19:03;;;;;;;14.40;6.50;;;;;;;;;;106851;1307;22813;-77
2022/11/03 00:21:29;;;;;;;16.90;6.70;;;;;;;;;;106776;1307;22069;-77
2022/11/03 00:23:55;;;;;;;19.50;6.50;;;;;;;;;;106856;1300;22054;-77
2022/11/03 00:26:24;;;;;;;13.40;4.50;;;;;;;;;;106949;1306;22169;-77
2022/11/03 00:28:54;;;;;;;14.10;5.40;;;;;;;;;;106845;1304;22469;-77
2022/11/03 00:31:25;;;;;;;12.80;5.00;;;;;;;;;;106856;1307;22073;-77
2022/11/03 00:33:51;;;;;;;14.90;5.00;;;;;;;;;;106943;1298;22585;-77
2022/11/03 00:36:21;;;;;;;12.90;4.00;;;;;;;;;;106859;1307;22127;-77
2022/11/03 00:38:47;;;;;;;16.40;5.10;;;;;;;;;;106826;1307;22135;-77
2022/11/03 00:41:14;;;;;;;18.00;5.30;;;;;;;;;;106874;1307;22315;-77
2022/11/03 00:43:40;;;;;;;14.70;4.80;;;;;;;;;;106882;1307;22134;-77
2022/11/03 00:46:07;;;;;;;13.90;4.90;;;;;;;;;;106790;1307;22253;-77
2022/11/03 00:48:34;;;;;;;31.50;9.10;;;;;;;;;;106928;1307;22108;-77
2022/11/03 00:51:00;;;;;;;17.90;5.60;;;;;;;;;;106831;1307;22044;-77
2022/11/03 00:53:27;;;;;;;8.30;2.40;;;;;;;;;;106919;1307;22062;-77
2022/11/03 00:55:53;;;;;;;9.70;2.50;;;;;;;;;;106897;1307;22074;-77
2022/11/03 00:58:19;;;;;;;9.30;2.20;;;;;;;;;;106778;1307;22069;-77
2022/11/03 01:00:44;;;;;;;10.90;2.20;;;;;;;;;;106843;1295;22083;-77
2022/11/03 01:03:11;;;;;;;8.30;2.10;;;;;;;;;;106846;1301;22182;-77
2022/11/03 01:08:30;;;;;;;10.80;2.20;;;;;;;;;;106855;1307;22856;-77
2022/11/03 01:13:48;;;;;;;11.10;2.40;;;;;;;;;;106819;1306;22694;-77
2022/11/03 01:16:14;;;;;;;8.30;2.00;;;;;;;;;;106797;1307;22839;-77
2022/11/03 01:18:41;;;;;;;11.70;3.40;;;;;;;;;;106806;1307;22121;-77
2022/11/03 01:21:09;;;;;;;10.40;3.00;;;;;;;;;;106868;1300;22033;-77
2022/11/03 01:23:35;;;;;;;9.50;3.40;;;;;;;;;;106715;1307;22756;-77
2022/11/03 01:26:06;;;;;;;12.40;4.20;;;;;;;;;;106773;1307;22100;-77
2022/11/03 01:28:33;;;;;;;13.00;3.70;;;;;;;;;;106695;1310;22105;-77
2022/11/03 01:31:08;;;;;;;13.90;3.80;;;;;;;;;;106775;1307;22068;-77
2022/11/03 01:33:35;;;;;;;12.60;3.40;;;;;;;;;;106709;1307;22061;-77
2022/11/03 01:36:03;;;;;;;10.90;3.40;;;;;;;;;;106821;1307;22144;-77
2022/11/03 01:38:31;;;;;;;10.90;3.60;;;;;;;;;;106819;1307;22704;-77
2022/11/03 01:40:59;;;;;;;11.90;3.50;;;;;;;;;;106880;1305;22720;-77
2022/11/03 01:43:27;;;;;;;12.50;3.60;;;;;;;;;;106803;1308;22030;-77
2022/11/03 01:46:00;;;;;;;12.20;3.00;;;;;;;;;;106911;1305;22096;-77
2022/11/03 01:48:28;;;;;;;9.60;2.80;;;;;;;;;;106778;1302;23025;-77
2022/11/03 01:50:54;;;;;;;10.70;2.80;;;;;;;;;;106659;1304;22455;-77
2022/11/03 01:53:22;;;;;;;11.90;2.80;;;;;;;;;;106930;1307;22642;-77
2022/11/03 01:55:49;;;;;;;7.10;2.30;;;;;;;;;;106811;1307;22102;-77
2022/11/03 01:58:21;;;;;;;8.70;2.10;;;;;;;;;;106767;1307;22096;-77
2022/11/03 02:00:49;;;;;;;10.30;2.70;;;;;;;;;;106805;1302;22082;-77
2022/11/03 02:03:17;;;;;;;10.80;3.70;;;;;;;;;;106796;1307;22029;-77
2022/11/03 02:05:44;;;;;;;6.50;2.00;;;;;;;;;;106926;1299;22053;-77
2022/11/03 02:08:16;;;;;;;9.90;2.30;;;;;;;;;;106814;1307;22068;-77
2022/11/03 02:10:46;;;;;;;8.80;2.00;;;;;;;;;;106706;1310;22278;-78
2022/11/03 02:13:20;;;;;;;7.90;2.10;;;;;;;;;;106703;1310;22098;-77
2022/11/03 02:15:49;;;;;;;7.90;2.10;;;;;;;;;;106670;1310;22070;-77
2022/11/03 02:18:19;;;;;;;10.70;2.40;;;;;;;;;;106713;1309;22809;-77
2022/11/03 02:20:53;;;;;;;8.20;2.10;;;;;;;;;;106582;1310;22879;-77
2022/11/03 02:23:42;;;;;;;9.70;2.60;;;;;;;;;;106735;1310;22097;-77
2022/11/03 02:26:12;;;;;;;10.50;2.20;;;;;;;;;;106683;1310;22054;-77
2022/11/03 02:28:40;;;;;;;9.20;2.80;;;;;;;;;;106668;1309;22160;-77
2022/11/03 02:31:12;;;;;;;10.70;2.40;;;;;;;;;;106592;1310;22119;-77
2022/11/03 02:33:57;;;;;;;9.10;2.70;;;;;;;;;;106715;1310;22500;-77
2022/11/03 02:36:57;;;;;;;8.40;2.50;;;;;;;;;;106664;1310;22051;-77
2022/11/03 02:39:36;;;;;;;10.30;2.60;;;;;;;;;;106379;1307;22189;-77
2022/11/03 02:42:04;;;;;;;9.50;2.70;;;;;;;;;;106130;1315;22142;-77
2022/11/03 02:44:32;;;;;;;11.10;2.60;;;;;;;;;;106229;1313;22936;-77
2022/11/03 02:47:02;;;;;;;11.90;2.60;;;;;;;;;;106218;1310;22922;-77
2022/11/03 02:49:30;;;;;;;7.50;2.60;;;;;;;;;;106282;1307;22170;-77
2022/11/03 02:52:01;;;;;;;11.00;2.80;;;;;;;;;;106214;1314;22910;-77
2022/11/03 02:54:46;;;;;;;10.50;3.00;;;;;;;;;;106399;1313;23198;-77
2022/11/03 02:57:18;;;;;;;10.60;2.90;;;;;;;;;;106136;1313;22859;-77
2022/11/03 02:59:53;;;;;;;10.70;2.40;;;;;;;;;;106120;1316;22127;-77
2022/11/03 03:02:23;;;;;;;8.50;2.30;;;;;;;;;;106166;1315;22255;-77
2022/11/03 03:04:54;;;;;;;11.50;2.80;;;;;;;;;;106224;1314;22169;-77
2022/11/03 03:07:27;;;;;;;11.10;2.60;;;;;;;;;;106286;1314;22194;-77
2022/11/03 03:17:47;;;;;;;11.10;2.60;;;;;;;;;;100392;1338;545437;-84
2022/11/03 03:20:20;;;;;;;10.30;2.80;;;;;;;;;;103586;1307;24238;-84
2022/11/03 03:23:02;;;;;;;13.60;3.70;;;;;;;;;;103487;1305;22462;-81
2022/11/03 03:25:31;;;;;;;9.70;2.70;;;;;;;;;;103516;1307;22666;-78
2022/11/03 03:28:01;;;;;;;8.10;2.50;;;;;;;;;;103317;1294;23026;-85
2022/11/03 03:30:29;;;;;;;10.60;2.80;;;;;;;;;;103219;1303;155608;-80
2022/11/03 03:32:58;;;;;;;9.00;2.30;;;;;;;;;;103511;1303;23835;-79
2022/11/03 03:35:27;;;;;;;10.10;2.60;;;;;;;;;;103783;1302;22765;-85
2022/11/03 03:37:56;;;;;;;10.40;2.60;;;;;;;;;;103814;1304;22514;-83
2022/11/03 03:40:36;;;;;;;11.00;2.80;;;;;;;;;;103834;1302;25328;-83
2022/11/03 03:43:05;;;;;;;12.30;3.00;;;;;;;;;;103881;1303;22536;-79
2022/11/03 03:45:33;;;;;;;12.60;3.30;;;;;;;;;;103801;1303;25209;-80
2022/11/03 03:48:00;;;;;;;9.60;3.00;;;;;;;;;;103731;1296;22556;-81
2022/11/03 03:50:28;;;;;;;12.00;3.00;;;;;;;;;;103529;1303;25541;-80
2022/11/03 03:53:03;;;;;;;12.90;3.30;;;;;;;;;;103592;1301;22486;-80
2022/11/03 03:55:34;;;;;;;14.80;3.50;;;;;;;;;;103637;1303;25280;-81
2022/11/03 03:58:02;;;;;;;12.70;4.20;;;;;;;;;;103693;1303;22655;-82
2022/11/03 04:00:29;;;;;;;11.00;3.50;;;;;;;;;;103452;1304;25231;-78
2022/11/03 04:02:56;;;;;;;13.30;3.30;;;;;;;;;;103385;1304;25465;-78
2022/11/03 04:05:24;;;;;;;11.50;3.10;;;;;;;;;;103553;1304;24036;-85
2022/11/03 04:07:50;;;;;;;8.50;3.00;;;;;;;;;;103759;1303;25305;-80
2022/11/03 04:10:18;;;;;;;12.40;3.00;;;;;;;;;;103779;1304;24270;-80
2022/11/03 04:24:00;;;;;;;16.20;4.00;;;;;;;;;;103589;1305;22706;-82
2022/11/03 04:26:27;;;;;;;13.20;4.90;;;;;;;;;;103575;1307;24237;-79
2022/11/03 04:28:54;;;;;;;13.40;3.90;;;;;;;;;;103518;1298;23509;-81
2022/11/03 04:31:21;;;;;;;13.90;3.70;;;;;;;;;;103536;1304;22452;-79
2022/11/03 04:33:48;;;;;;;12.10;4.20;;;;;;;;;;103526;1304;22468;-80
2022/11/03 04:36:18;;;;;;;16.70;4.70;;;;;;;;;;103701;1304;22454;-83
2022/11/03 04:38:44;;;;;;;13.90;4.20;;;;;;;;;;103699;1304;22464;-80
2022/11/03 04:41:16;;;;;;;14.70;4.70;;;;;;;;;;103749;1298;23230;-83
2022/11/03 04:43:44;;;;;;;15.50;4.40;;;;;;;;;;103697;1304;25353;-83
2022/11/03 04:46:12;;;;;;;12.60;4.50;;;;;;;;;;103726;1307;22475;-83
2022/11/03 04:48:39;;;;;;;14.90;5.50;;;;;;;;;;103621;1299;22486;-81
2022/11/03 04:51:16;;;;;;;18.80;7.40;;;;;;;;;;103512;1305;22746;-78
2022/11/03 04:53:48;;;;;;;16.70;5.90;;;;;;;;;;103475;1307;22599;-81
2022/11/03 04:56:17;;;;;;;16.50;5.40;;;;;;;;;;103688;1307;22718;-83
2022/11/03 04:58:47;;;;;;;15.30;5.50;;;;;;;;;;103536;1305;22528;-82
2022/11/03 05:01:18;;;;;;;14.10;5.80;;;;;;;;;;103607;1304;24237;-79
2022/11/03 05:03:46;;;;;;;15.30;5.80;;;;;;;;;;103677;1307;24307;-82
2022/11/03 05:06:14;;;;;;;14.70;5.70;;;;;;;;;;103792;1304;22458;-83
2022/11/03 05:08:43;;;;;;;18.20;6.50;;;;;;;;;;103489;1307;22454;-78
2022/11/03 05:11:39;;;;;;;17.90;5.60;;;;;;;;;;103689;1306;22466;-81
2022/11/03 05:14:13;;;;;;;16.50;5.40;;;;;;;;;;103541;1306;22494;-81
2022/11/03 05:16:39;;;;;;;17.60;6.80;;;;;;;;;;103512;1305;25388;-81
2022/11/03 05:19:12;;;;;;;18.30;7.80;;;;;;;;;;103514;1305;22470;-79
2022/11/03 05:21:39;;;;;;;18.90;6.60;;;;;;;;;;103460;1306;25609;-85
2022/11/03 05:24:10;;;;;;;19.60;6.50;;;;;;;;;;103579;1306;24356;-79
2022/11/03 05:26:37;;;;;;;16.90;5.40;;;;;;;;;;103692;1304;22427;-81
2022/11/03 05:29:10;;;;;;;17.60;6.60;;;;;;;;;;103489;1306;25353;-80
2022/11/03 05:31:39;;;;;;;20.80;6.30;;;;;;;;;;103516;1307;22528;-85
2022/11/03 05:34:27;;;;;;;15.90;5.70;;;;;;;;;;103350;1307;22509;-84
2022/11/03 05:36:53;;;;;;;16.00;6.30;;;;;;;;;;103489;1303;22469;-80
2022/11/03 05:39:33;;;;;;;19.20;7.50;;;;;;;;;;103472;1305;22470;-81
2022/11/03 05:42:00;;;;;;;20.60;7.50;;;;;;;;;;103502;1306;22456;-79
2022/11/03 05:44:33;;;;;;;17.80;6.80;;;;;;;;;;103459;1298;22837;-85
2022/11/03 05:47:01;;;;;;;17.90;6.60;;;;;;;;;;103508;1306;23888;-78
2022/11/03 05:49:27;;;;;;;14.00;5.70;;;;;;;;;;103471;1303;22465;-82
2022/11/03 05:51:54;;;;;;;15.20;5.70;;;;;;;;;;103307;1307;21829;-82
2022/11/03 05:54:23;;;;;;;16.80;5.50;;;;;;;;;;103354;1307;23240;-82
2022/11/03 05:56:49;;;;;;;21.90;7.50;;;;;;;;;;103407;1302;24314;-78
2022/11/03 05:59:18;;;;;;;20.00;7.10;;;;;;;;;;103355;1294;23878;-78
2022/11/03 06:01:45;;;;;;;20.40;7.00;;;;;;;;;;103343;1306;22727;-85
2022/11/03 06:04:27;;;;;;;18.00;7.20;;;;;;;;;;103398;1306;22455;-79
2022/11/03 06:07:02;;;;;;;20.50;7.40;;;;;;;;;;103458;1306;22472;-79
2022/11/03 06:09:30;;;;;;;17.10;7.50;;;;;;;;;;103362;1306;24037;-78
2022/11/03 06:11:59;;;;;;;19.10;8.70;;;;;;;;;;103241;1306;22523;-80
2022/11/03 06:14:27;;;;;;;21.40;8.80;;;;;;;;;;103477;1306;22462;-85
2022/11/03 06:16:57;;;;;;;20.10;9.20;;;;;;;;;;103506;1281;24426;-79
2022/11/03 06:19:46;;;;;;;21.30;9.40;;;;;;;;;;103581;1297;22499;-78
2022/11/03 06:22:30;;;;;;;19.60;8.40;;;;;;;;;;103905;1289;22512;-84
2022/11/03 06:25:09;;;;;;;17.50;7.90;;;;;;;;;;103558;1299;22528;-79
2022/11/03 06:27:35;;;;;;;18.50;7.90;;;;;;;;;;103516;1307;24023;-82
2022/11/03 06:30:16;;;;;;;17.10;6.80;;;;;;;;;;103523;1301;22532;-77
2022/11/03 06:32:43;;;;;;;15.60;7.50;;;;;;;;;;103361;1301;22459;-80
2022/11/03 06:35:11;;;;;;;21.70;9.60;;;;;;;;;;103481;1306;22479;-82
2022/11/03 06:37:39;;;;;;;30.10;11.90;;;;;;;;;;103505;1305;22461;-80
2022/11/03 06:40:09;;;;;;;26.70;9.90;;;;;;;;;;103478;1306;22456;-84
2022/11/03 06:42:37;;;;;;;24.30;10.00;;;;;;;;;;103487;1307;22708;-79
2022/11/03 06:45:21;;;;;;;26.90;9.80;;;;;;;;;;103514;1307;22460;-84
2022/11/03 06:47:47;;;;;;;22.50;9.30;;;;;;;;;;103485;1310;23880;-80
2022/11/03 06:50:28;;;;;;;19.40;8.20;;;;;;;;;;103480;1307;22832;-85
2022/11/03 06:52:56;;;;;;;16.30;7.30;;;;;;;;;;103556;1301;22615;-80
2022/11/03 06:55:23;;;;;;;17.00;7.20;;;;;;;;;;103472;1307;22462;-85
2022/11/03 06:57:52;;;;;;;16.30;7.40;;;;;;;;;;103489;1307;22468;-82
2022/11/03 07:00:21;;;;;;;17.60;6.90;;;;;;;;;;103474;1306;22539;-80
2022/11/03 07:03:01;;;;;;;14.20;6.90;;;;;;;;;;103616;1307;24247;-80
2022/11/03 07:05:28;;;;;;;15.90;7.90;;;;;;;;;;103538;1307;22603;-85
2022/11/03 07:07:57;;;;;;;20.40;6.80;;;;;;;;;;103621;1298;25223;-83
2022/11/03 07:10:25;;;;;;;20.60;6.30;;;;;;;;;;103324;1307;22485;-79
2022/11/03 07:12:52;;;;;;;18.30;7.60;;;;;;;;;;103439;1305;22943;-79
2022/11/03 07:15:23;;;;;;;19.00;7.90;;;;;;;;;;103427;1306;23883;-83
2022/11/03 07:17:51;;;;;;;23.00;10.80;;;;;;;;;;103397;1306;22470;-86
2022/11/03 07:20:17;;;;;;;25.80;13.70;;;;;;;;;;103400;1307;24327;-83
2022/11/03 07:22:45;;;;;;;25.70;10.80;;;;;;;;;;103453;1296;22455;-79
2022/11/03 07:25:19;;;;;;;19.40;7.40;;;;;;;;;;103483;1288;22625;-78
2022/11/03 07:27:56;;;;;;;22.00;7.20;;;;;;;;;;103283;1283;23900;-83
2022/11/03 07:30:25;;;;;;;23.40;7.30;;;;;;;;;;103416;1290;22473;-79
2022/11/03 07:32:53;;;;;;;22.50;7.00;;;;;;;;;;103207;1284;23715;-79
2022/11/03 07:35:24;;;;;;;19.30;6.20;;;;;;;;;;103448;1306;24285;-80
2022/11/03 07:37:52;;;;;;;15.10;6.20;;;;;;;;;;103470;1292;22485;-82
2022/11/03 07:40:24;;;;;;;14.40;6.20;;;;;;;;;;103513;1302;22836;-83
2022/11/03 07:42:51;;;;;;;18.60;7.70;;;;;;;;;;103404;1306;24357;-80
2022/11/03 07:45:38;;;;;;;18.90;7.80;;;;;;;;;;103604;1280;22588;-79
2022/11/03 07:48:18;;;;;;;19.70;7.10;;;;;;;;;;103469;1288;22608;-79
2022/11/03 07:50:49;;;;;;;22.60;7.70;;;;;;;;;;103792;1298;24418;-77
2022/11/03 07:53:19;;;;;;;22.40;7.30;;;;;;;;;;103610;1306;22488;-78
2022/11/03 07:55:46;;;;;;;17.70;6.00;;;;;;;;;;103355;1306;22539;-82
2022/11/03 07:58:24;;;;;;;17.10;5.20;;;;;;;;;;103390;1310;23878;-82
2022/11/03 08:00:56;;;;;;;19.80;5.20;;;;;;;;;;103486;1306;22464;-80
2022/11/03 08:03:49;;;;;;;14.70;4.70;;;;;;;;;;103501;1306;22464;-85
2022/11/03 08:06:15;;;;;;;17.00;4.70;;;;;;;;;;103469;1306;22464;-85
2022/11/03 08:08:42;;;;;;;14.10;5.10;;;;;;;;;;103502;1306;24272;-83
2022/11/03 08:11:09;;;;;;;16.90;5.60;;;;;;;;;;103494;1298;22462;-79
2022/11/03 08:13:36;;;;;;;14.90;5.20;;;;;;;;;;103409;1306;22495;-83
2022/11/03 08:16:03;;;;;;;12.20;3.90;;;;;;;;;;103375;1307;24369;-83
2022/11/03 08:18:30;;;;;;;11.50;3.30;;;;;;;;;;103481;1306;25282;-82
2022/11/03 08:20:56;;;;;;;14.70;3.30;;;;;;;;;;103441;1305;22819;-80
2022/11/03 08:23:23;;;;;;;11.90;3.40;;;;;;;;;;103537;1307;25320;-83
2022/11/03 08:25:50;;;;;;;15.20;3.70;;;;;;;;;;103621;1305;22458;-82
2022/11/03 08:28:16;;;;;;;19.20;3.90;;;;;;;;;;103474;1290;25245;-83
2022/11/03 08:30:43;;;;;;;10.10;2.90;;;;;;;;;;103594;1283;22609;-79
2022/11/03 08:33:09;;;;;;;11.60;2.40;;;;;;;;;;103547;1307;22474;-80
2022/11/03 08:35:36;;;;;;;12.10;2.50;;;;;;;;;;103420;1298;23369;-80
2022/11/03 08:38:02;;;;;;;7.50;1.90;;;;;;;;;;103494;1281;22468;-80
2022/11/03 08:40:30;;;;;;;11.60;1.90;;;;;;;;;;103426;1292;24240;-82
2022/11/03 08:43:01;;;;;;;8.20;2.30;;;;;;;;;;103471;1306;22544;-78
2022/11/03 08:45:28;;;;;;;12.50;3.10;;;;;;;;;;103623;1306;23399;-78
2022/11/03 08:47:55;;;;;;;13.90;3.00;;;;;;;;;;103727;1307;25168;-83
2022/11/03 08:50:22;;;;;;;12.50;3.00;;;;;;;;;;103543;1307;22458;-82
2022/11/03 08:52:49;;;;;;;12.20;3.20;;;;;;;;;;103499;1310;24681;-86
2022/11/03 08:55:15;;;;;;;11.40;3.20;;;;;;;;;;103531;1295;25543;-81
2022/11/03 08:57:42;;;;;;;11.20;3.40;;;;;;;;;;103493;1288;25419;-83
2022/11/03 09:00:09;;;;;;;11.80;3.40;;;;;;;;;;103513;1307;25406;-85
2022/11/03 09:02:35;;;;;;;12.00;3.20;;;;;;;;;;103680;1305;23894;-79
2022/11/03 09:05:03;;;;;;;14.50;3.70;;;;;;;;;;103602;1310;25195;-81
2022/11/03 09:07:30;;;;;;;13.40;4.10;;;;;;;;;;103609;1300;22476;-79
2022/11/03 09:09:57;;;;;;;12.00;3.80;;;;;;;;;;103653;1305;22543;-85
2022/11/03 09:12:23;;;;;;;11.50;3.60;;;;;;;;;;103693;1290;21819;-78
2022/11/03 09:14:50;;;;;;;13.00;3.40;;;;;;;;;;103324;1295;22481;-80
2022/11/03 09:17:16;;;;;;;11.50;3.70;;;;;;;;;;103709;1288;24484;-78
2022/11/03 09:19:43;;;;;;;14.30;5.20;;;;;;;;;;103569;1307;25895;-85
2022/11/03 09:22:09;;;;;;;11.20;3.10;;;;;;;;;;103470;1307;25251;-79
2022/11/03 09:24:36;;;;;;;11.50;3.20;;;;;;;;;;103638;1305;22587;-84
2022/11/03 09:27:03;;;;;;;11.90;2.90;;;;;;;;;;103787;1307;23864;-79
2022/11/03 09:29:30;;;;;;;9.50;2.80;;;;;;;;;;103822;1294;22507;-80
2022/11/03 09:31:57;;;;;;;8.60;2.50;;;;;;;;;;103762;1304;22487;-83
2022/11/03 09:34:24;;;;;;;12.60;2.50;;;;;;;;;;103693;1304;25287;-84
2022/11/03 09:36:50;;;;;;;13.20;3.30;;;;;;;;;;103553;1288;25335;-78
2022/11/03 09:39:17;;;;;;;16.60;4.30;;;;;;;;;;103566;1307;23186;-83
2022/11/03 09:41:44;;;;;;;10.40;3.20;;;;;;;;;;103589;1310;24714;-83
2022/11/03 09:44:10;;;;;;;8.10;2.70;;;;;;;;;;103485;1301;22532;-81
2022/11/03 09:46:37;;;;;;;9.50;2.20;;;;;;;;;;103672;1307;24006;-84
2022/11/03 09:49:04;;;;;;;7.50;2.30;;;;;;;;;;103702;1308;22462;-83
2022/11/03 09:51:32;;;;;;;17.70;5.20;;;;;;;;;;103548;1297;25415;-80
2022/11/03 09:54:01;;;;;;;16.40;4.00;;;;;;;;;;103661;1305;22553;-84
2022/11/03 09:56:28;;;;;;;15.10;3.40;;;;;;;;;;103431;1307;22836;-84
2022/11/03 09:58:54;;;;;;;17.20;4.90;;;;;;;;;;103444;1307;22974;-80
2022/11/03 10:01:22;;;;;;;17.70;5.70;;;;;;;;;;103449;1307;22524;-81
2022/11/03 10:03:49;;;;;;;19.20;7.20;;;;;;;;;;103462;1307;24387;-84
2022/11/03 10:06:16;;;;;;;22.00;7.60;;;;;;;;;;103455;1301;25281;-82
2022/11/03 10:08:44;;;;;;;12.90;3.70;;;;;;;;;;103485;1302;24271;-86
2022/11/03 10:11:11;;;;;;;10.20;2.30;;;;;;;;;;103731;1282;24296;-81
2022/11/03 10:13:40;;;;;;;8.50;2.10;;;;;;;;;;103507;1303;22514;-81
2022/11/03 10:16:10;;;;;;;8.40;1.90;;;;;;;;;;103544;1306;22581;-84
2022/11/03 10:18:37;;;;;;;8.00;1.80;;;;;;;;;;103452;1292;22474;-84
2022/11/03 10:21:05;;;;;;;9.50;2.00;;;;;;;;;;103526;1288;22473;-83
2022/11/03 10:23:32;;;;;;;7.20;1.80;;;;;;;;;;103598;1294;22522;-79
2022/11/03 10:26:11;;;;;;;6.60;1.60;;;;;;;;;;103632;1304;22410;-79
2022/11/03 10:28:39;;;;;;;13.30;3.70;;;;;;;;;;103754;1298;25338;-79
2022/11/03 10:31:16;;;;;;;11.70;2.60;;;;;;;;;;103548;1306;22514;-83
2022/11/03 10:33:54;;;;;;;11.80;2.90;;;;;;;;;;103586;1304;22599;-80
2022/11/03 10:36:25;;;;;;;8.10;1.90;;;;;;;;;;103606;1304;22472;-80
2022/11/03 10:38:52;;;;;;;9.90;2.50;;;;;;;;;;103570;1307;22473;-83
2022/11/03 10:41:20;;;;;;;6.80;1.70;;;;;;;;;;103522;1306;25337;-78
2022/11/03 10:50:54;;;;;;;8.80;2.00;;;;;;;;;;100426;1341;544964;-86
2022/11/03 10:53:24;;;;;;;10.60;2.50;;;;;;;;;;102469;1316;22496;-84
2022/11/03 10:55:51;;;;;;;9.20;2.10;;;;;;;;;;102483;1316;24318;-80
2022/11/03 10:58:17;;;;;;;8.00;2.20;;;;;;;;;;102517;1316;22539;-80
2022/11/03 11:00:44;;;;;;;10.20;3.60;;;;;;;;;;102462;1317;24449;-85
2022/11/03 11:03:11;;;;;;;12.60;3.50;;;;;;;;;;102393;1319;25331;-82
2022/11/03 11:05:43;;;;;;;7.90;1.70;;;;;;;;;;102588;1316;166729;-79
2022/11/03 11:08:10;;;;;;;6.00;1.40;;;;;;;;;;102840;1302;22576;-82
2022/11/03 11:10:42;;;;;;;7.40;1.40;;;;;;;;;;102720;1316;22530;-83
2022/11/03 11:13:18;;;;;;;5.90;1.30;;;;;;;;;;102707;1316;25341;-80
2022/11/03 11:15:45;;;;;;;8.90;2.00;;;;;;;;;;102830;1315;22472;-81
2022/11/03 11:18:27;;;;;;;6.20;1.50;;;;;;;;;;102738;1316;24699;-83
2022/11/03 11:21:20;;;;;;;7.70;1.90;;;;;;;;;;102762;1316;22499;-79
2022/11/03 11:23:48;;;;;;;6.60;1.50;;;;;;;;;;102736;1316;25415;-78
2022/11/03 11:26:16;;;;;;;7.70;2.00;;;;;;;;;;102499;1317;22466;-85
2022/11/03 11:28:44;;;;;;;8.80;1.90;;;;;;;;;;102704;1316;22602;-81
2022/11/03 11:31:28;;;;;;;8.40;1.60;;;;;;;;;;102589;1313;25634;-85
2022/11/03 11:34:07;;;;;;;7.20;1.70;;;;;;;;;;102918;1292;25267;-83
2022/11/03 11:36:35;;;;;;;10.50;2.50;;;;;;;;;;103253;1310;24279;-82
2022/11/03 11:39:22;;;;;;;9.60;2.30;;;;;;;;;;103255;1310;23704;-82
2022/11/03 11:42:07;;;;;;;8.70;2.20;;;;;;;;;;103123;1310;24295;-79
2022/11/03 11:44:53;;;;;;;6.40;1.70;;;;;;;;;;103163;1309;22479;-82
2022/11/03 11:47:32;;;;;;;8.60;1.70;;;;;;;;;;103311;1287;23768;-81
2022/11/03 11:50:02;;;;;;;7.70;1.80;;;;;;;;;;103049;1311;25213;-80
2022/11/03 11:52:29;;;;;;;26.80;16.60;;;;;;;;;;103017;1313;22477;-78
2022/11/03 11:54:55;;;;;;;92.10;55.50;;;;;;;;;;103295;1310;22455;-79
2022/11/03 11:57:23;;;;;;;21.20;9.80;;;;;;;;;;103219;1310;23868;-80
2022/11/03 11:59:50;;;;;;;20.90;6.70;;;;;;;;;;103217;1310;22431;-78
2022/11/03 12:02:23;;;;;;;14.20;3.80;;;;;;;;;;103246;1298;25211;-80
2022/11/03 12:04:53;;;;;;;12.50;4.30;;;;;;;;;;102926;1295;25259;-82
2022/11/03 12:07:33;;;;;;;28.00;9.60;;;;;;;;;;103004;1298;22533;-79
2022/11/03 12:10:17;;;;;;;23.50;7.20;;;;;;;;;;102831;1298;25324;-84
2022/11/03 12:12:44;;;;;;;11.80;2.60;;;;;;;;;;103164;1310;22667;-78
2022/11/03 12:15:29;;;;;;;13.00;2.90;;;;;;;;;;103532;1310;22457;-82
2022/11/03 12:17:56;;;;;;;22.10;10.10;;;;;;;;;;103319;1288;22465;-85
2022/11/03 12:20:43;;;;;;;15.60;7.30;;;;;;;;;;103591;1310;22594;-82
2022/11/03 12:23:09;;;;;;;53.10;24.10;;;;;;;;;;103544;1309;25630;-83
2022/11/03 12:25:38;;;;;;;175.80;70.80;;;;;;;;;;103296;1295;23860;-81
2022/11/03 12:28:05;;;;;;;81.80;44.50;;;;;;;;;;103250;1286;22597;-83
2022/11/03 12:30:32;;;;;;;64.50;29.10;;;;;;;;;;102965;1294;22472;-83
2022/11/03 12:32:58;;;;;;;64.50;32.00;;;;;;;;;;103688;1283;22454;-82
2022/11/03 12:35:25;;;;;;;564.40;301.90;;;;;;;;;;103913;1304;24287;-81
2022/11/03 12:37:52;;;;;;;651.10;350.90;;;;;;;;;;103481;1288;25353;-83
2022/11/03 12:40:18;;;;;;;742.80;435.30;;;;;;;;;;103468;1307;22536;-84
2022/11/03 12:42:45;;;;;;;1009.00;573.50;;;;;;;;;;103344;1306;25438;-80
2022/11/03 12:45:12;;;;;;;627.00;331.50;;;;;;;;;;103522;1300;22462;-85
2022/11/03 12:47:39;;;;;;;916.50;480.90;;;;;;;;;;103364;1306;24108;-79
2022/11/03 12:50:05;;;;;;;309.10;140.80;;;;;;;;;;103458;1301;24395;-83
2022/11/03 12:52:32;;;;;;;265.30;108.50;;;;;;;;;;103348;1309;24235;-86
2022/11/03 12:54:59;;;;;;;36.60;12.70;;;;;;;;;;103534;1307;22698;-79
2022/11/03 12:57:25;;;;;;;21.50;6.00;;;;;;;;;;103477;1307;22465;-86
2022/11/03 12:59:52;;;;;;;20.20;7.10;;;;;;;;;;103527;1303;22467;-84
2022/11/03 13:02:19;;;;;;;12.30;3.60;;;;;;;;;;103684;1305;23269;-78
2022/11/03 13:04:46;;;;;;;1036.20;597.20;;;;;;;;;;103225;1310;22608;-79
2022/11/03 13:07:12;;;;;;;101.10;39.90;;;;;;;;;;103396;1293;22930;-84
2022/11/03 13:09:39;;;;;;;225.70;110.60;;;;;;;;;;103296;1303;22528;-82
2022/11/03 13:14:51;;;;;;;704.10;358.00;;;;;;;;;;103538;1305;22464;-78
2022/11/03 13:17:17;;;;;;;40.30;17.00;;;;;;;;;;103577;1295;22476;-86
2022/11/03 13:19:44;;;;;;;250.50;95.60;;;;;;;;;;103485;1305;25371;-84
2022/11/03 13:22:10;;;;;;;43.60;16.00;;;;;;;;;;106995;1302;22079;-80
2022/11/03 13:24:37;;;;;;;20.10;6.40;;;;;;;;;;106851;1299;22051;-79
2022/11/03 13:27:04;;;;;;;17.80;5.10;;;;;;;;;;106771;1306;22842;-80
2022/11/03 13:29:30;;;;;;;474.40;213.50;;;;;;;;;;107224;1277;22889;-80
2022/11/03 13:31:57;;;;;;;330.90;127.30;;;;;;;;;;106865;1306;22133;-79
2022/11/03 13:34:23;;;;;;;291.00;95.20;;;;;;;;;;106882;1306;22145;-80
2022/11/03 13:36:50;;;;;;;587.30;291.00;;;;;;;;;;106988;1306;22085;-80
2022/11/03 13:39:17;;;;;;;197.30;85.10;;;;;;;;;;106922;1307;21696;-80
2022/11/03 13:41:43;;;;;;;253.40;99.90;;;;;;;;;;107225;1288;22077;-80
2022/11/03 13:44:10;;;;;;;85.70;33.90;;;;;;;;;;106924;1298;22208;-80
2022/11/03 13:46:36;;;;;;;66.00;27.00;;;;;;;;;;106917;1301;22104;-80
2022/11/03 13:49:03;;;;;;;91.30;35.50;;;;;;;;;;106922;1304;22263;-80
2022/11/03 13:51:30;;;;;;;53.60;17.90;;;;;;;;;;106691;1309;23552;-80
2022/11/03 13:53:56;;;;;;;320.40;146.40;;;;;;;;;;106888;1307;22044;-80
2022/11/03 13:56:23;;;;;;;415.00;187.50;;;;;;;;;;106968;1304;21931;-80
2022/11/03 13:58:50;;;;;;;323.30;120.10;;;;;;;;;;106889;1308;22116;-80
2022/11/03 14:01:16;;;;;;;129.80;39.90;;;;;;;;;;106988;1305;22751;-80
2022/11/03 14:03:43;;;;;;;707.40;249.20;;;;;;;;;;106906;1304;21978;-80
2022/11/03 14:06:09;;;;;;;115.60;34.90;;;;;;;;;;106934;1292;22067;-80
2022/11/03 14:08:37;;;;;;;331.40;93.30;;;;;;;;;;106911;1282;22113;-80
2022/11/03 14:12:29;;;;;;;286.90;72.20;;;;;;;;;;106991;1307;22119;-79
2022/11/03 14:13:51;;;;;;;251.80;97.70;;;;;;;;;;106881;1305;22341;-79
2022/11/03 14:16:17;;;;;;;347.10;117.10;;;;;;;;;;106890;1307;22091;-79
2022/11/03 14:18:44;;;;;;;144.00;40.20;;;;;;;;;;107034;1307;22092;-79
2022/11/03 14:21:11;;;;;;;340.20;112.70;;;;;;;;;;107036;1307;22081;-79
2022/11/03 14:23:38;;;;;;;1032.10;503.40;;;;;;;;;;106931;1306;22085;-79
2022/11/03 14:26:05;;;;;;;530.10;210.00;;;;;;;;;;106909;1305;22043;-79
2022/11/03 14:28:32;;;;;;;615.90;232.80;;;;;;;;;;106937;1306;22080;-79
2022/11/03 14:31:04;;;;;;;107.40;36.30;;;;;;;;;;106922;1307;22084;-79
2022/11/03 14:33:30;;;;;;;38.90;12.50;;;;;;;;;;106920;1307;22160;-79
2022/11/03 14:35:57;;;;;;;228.50;76.90;;;;;;;;;;106984;1306;22127;-79
2022/11/03 14:38:24;;;;;;;244.80;88.60;;;;;;;;;;107044;1307;22561;-79
2022/11/03 14:43:36;;;;;;;407.00;161.70;;;;;;;;;;107307;1289;22750;-79
2022/11/03 14:46:02;;;;;;;468.00;209.70;;;;;;;;;;106941;1305;22091;-79
2022/11/03 14:48:29;;;;;;;139.90;56.20;;;;;;;;;;106966;1307;22077;-79
2022/11/03 14:50:55;;;;;;;100.70;39.00;;;;;;;;;;106937;1307;22833;-79
2022/11/03 14:53:23;;;;;;;45.80;20.40;;;;;;;;;;106922;1307;22779;-79
2022/11/03 14:55:49;;;;;;;37.30;14.80;;;;;;;;;;106915;1307;22809;-79
2022/11/03 14:58:16;;;;;;;21.70;9.00;;;;;;;;;;107057;1294;22042;-79
2022/11/03 15:00:43;;;;;;;14.90;5.30;;;;;;;;;;107307;1303;22112;-79
2022/11/03 15:03:10;;;;;;;14.00;5.20;;;;;;;;;;106940;1306;22067;-79
2022/11/03 15:05:43;;;;;;;13.60;4.80;;;;;;;;;;106900;1307;22700;-79